sensor_id;sensor_type;location;lat;lon;timestamp;pressure;altitude;pressure_sealevel;temperature;humidity
11985;BME280;6052;53.246;10.368;2024-01-11T00:00:54;102916.50;;;-2.73;100.00
11985;BME280;6052;53.246;10.368;2024-01-11T00:03:26;102906.97;;;-2.62;100.00
11985;BME280;6052;53.246;10.368;2024-01-11T00:05:58;102900.28;;;-2.27;100.00
11985;BME280;6052;53.246;10.368;2024-01-11T00:08:31;102893.00;;;-2.36;100.00
11985;BME280;6052;53.246;10.368;2024-01-11T00:11:01;102897.44;;;-2.50;100.00
11985;BME280;6052;53.246;10.368;2024-01-11T00:13:30;102881.88;;;-2.27;100.00
11985;BME280;6052;53.246;10.368;2024-01-11T00:16:00;102878.00;;;-2.48;100.00
11985;BME280;6052;53.246;10.368;2024-01-11T00:18:29;102876.41;;;-2.50;100.00
11985;BME280;6052;53.246;10.368;2024-01-11T00:21:02;102882.81;;;-2.54;100.00
11985;BME280;6052;53.246;10.368;2024-01-11T00:23:32;102870.97;;;-2.47;100.00
11985;BME280;6052;53.246;10.368;2024-01-11T00:26:01;102872.09;;;-2.78;100.00
11985;BME280;6052;53.246;10.368;2024-01-11T00:28:31;102858.97;;;-2.51;100.00
11985;BME280;6052;53.246;10.368;2024-01-11T00:31:01;102856.50;;;-2.28;100.00
11985;BME280;6052;53.246;10.368;2024-01-11T00:33:30;102848.66;;;-2.81;100.00
11985;BME280;6052;53.246;10.368;2024-01-11T00:36:03;102834.78;;;-2.83;100.00
11985;BME280;6052;53.246;10.368;2024-01-11T00:38:33;102838.25;;;-2.56;100.00
11985;BME280;6052;53.246;10.368;2024-01-11T00:41:03;102834.59;;;-2.14;100.00
11985;BME280;6052;53.246;10.368;2024-01-11T00:43:33;102824.28;;;-2.05;100.00
11985;BME280;6052;53.246;10.368;2024-01-11T00:46:02;102813.03;;;-2.07;100.00
11985;BME280;6052;53.246;10.368;2024-01-11T00:48:32;102803.13;;;-2.16;100.00
11985;BME280;6052;53.246;10.368;2024-01-11T00:51:06;102788.41;;;-2.06;100.00
11985;BME280;6052;53.246;10.368;2024-01-11T00:53:36;102784.09;;;-2.07;100.00
11985;BME280;6052;53.246;10.368;2024-01-11T00:56:05;102788.31;;;-2.04;100.00
11985;BME280;6052;53.246;10.368;2024-01-11T00:58:35;102803.75;;;-2.25;100.00
11985;BME280;6052;53.246;10.368;2024-01-11T01:01:08;102801.47;;;-2.04;100.00
11985;BME280;6052;53.246;10.368;2024-01-11T01:03:39;102789.97;;;-2.16;100.00
11985;BME280;6052;53.246;10.368;2024-01-11T01:06:11;102792.91;;;-2.08;100.00
11985;BME280;6052;53.246;10.368;2024-01-11T01:08:41;102797.53;;;-1.99;100.00
11985;BME280;6052;53.246;10.368;2024-01-11T01:11:10;102779.38;;;-2.02;100.00
11985;BME280;6052;53.246;10.368;2024-01-11T01:13:40;102778.94;;;-2.08;100.00
11985;BME280;6052;53.246;10.368;2024-01-11T01:16:10;102783.72;;;-2.40;100.00
11985;BME280;6052;53.246;10.368;2024-01-11T01:18:39;102783.75;;;-2.15;100.00
11985;BME280;6052;53.246;10.368;2024-01-11T01:21:12;102787.03;;;-2.11;100.00
11985;BME280;6052;53.246;10.368;2024-01-11T01:23:42;102779.22;;;-2.13;100.00
11985;BME280;6052;53.246;10.368;2024-01-11T01:26:11;102804.81;;;-2.15;100.00
11985;BME280;6052;53.246;10.368;2024-01-11T01:28:41;102806.06;;;-2.59;100.00
11985;BME280;6052;53.246;10.368;2024-01-11T01:31:11;102795.84;;;-2.25;100.00
11985;BME280;6052;53.246;10.368;2024-01-11T01:33:41;102789.75;;;-2.13;100.00
11985;BME280;6052;53.246;10.368;2024-01-11T01:36:13;102787.53;;;-2.31;100.00
11985;BME280;6052;53.246;10.368;2024-01-11T01:38:43;102779.88;;;-2.34;100.00
11985;BME280;6052;53.246;10.368;2024-01-11T01:41:13;102770.78;;;-2.43;100.00
11985;BME280;6052;53.246;10.368;2024-01-11T01:43:43;102768.84;;;-2.27;100.00
11985;BME280;6052;53.246;10.368;2024-01-11T01:46:14;102759.84;;;-2.49;100.00
11985;BME280;6052;53.246;10.368;2024-01-11T01:48:49;102772.78;;;-2.46;100.00
11985;BME280;6052;53.246;10.368;2024-01-11T01:51:22;102785.50;;;-2.40;100.00
11985;BME280;6052;53.246;10.368;2024-01-11T01:53:52;102795.06;;;-2.39;100.00
11985;BME280;6052;53.246;10.368;2024-01-11T01:56:22;102798.75;;;-2.42;100.00
11985;BME280;6052;53.246;10.368;2024-01-11T01:58:53;102801.53;;;-2.31;100.00
11985;BME280;6052;53.246;10.368;2024-01-11T02:01:23;102805.09;;;-2.32;100.00
11985;BME280;6052;53.246;10.368;2024-01-11T02:03:54;102802.75;;;-2.49;100.00
11985;BME280;6052;53.246;10.368;2024-01-11T02:06:29;102791.63;;;-2.40;100.00
11985;BME280;6052;53.246;10.368;2024-01-11T02:09:01;102787.34;;;-2.28;100.00
11985;BME280;6052;53.246;10.368;2024-01-11T02:11:33;102776.81;;;-2.41;100.00
11985;BME280;6052;53.246;10.368;2024-01-11T02:14:03;102762.78;;;-2.54;100.00
11985;BME280;6052;53.246;10.368;2024-01-11T02:16:33;102763.66;;;-2.41;100.00
11985;BME280;6052;53.246;10.368;2024-01-11T02:19:04;102773.34;;;-2.29;100.00
11985;BME280;6052;53.246;10.368;2024-01-11T02:21:40;102798.97;;;-2.45;100.00
11985;BME280;6052;53.246;10.368;2024-01-11T02:24:14;102808.41;;;-2.55;100.00
11985;BME280;6052;53.246;10.368;2024-01-11T02:26:58;102821.88;;;-2.47;100.00
11985;BME280;6052;53.246;10.368;2024-01-11T02:29:29;102821.22;;;-2.50;100.00
11985;BME280;6052;53.246;10.368;2024-01-11T02:32:00;102842.22;;;-3.03;100.00
11985;BME280;6052;53.246;10.368;2024-01-11T02:34:31;102845.88;;;-2.92;100.00
11985;BME280;6052;53.246;10.368;2024-01-11T02:37:03;102845.09;;;-2.80;100.00
11985;BME280;6052;53.246;10.368;2024-01-11T02:39:36;102814.50;;;-2.42;100.00
11985;BME280;6052;53.246;10.368;2024-01-11T02:42:06;102818.97;;;-2.30;100.00
11985;BME280;6052;53.246;10.368;2024-01-11T02:44:36;102829.72;;;-2.59;100.00
11985;BME280;6052;53.246;10.368;2024-01-11T02:47:05;102817.25;;;-2.56;100.00
11985;BME280;6052;53.246;10.368;2024-01-11T02:49:35;102830.66;;;-2.60;100.00
11985;BME280;6052;53.246;10.368;2024-01-11T02:52:10;102824.78;;;-2.64;100.00
11985;BME280;6052;53.246;10.368;2024-01-11T02:54:42;102824.59;;;-2.61;100.00
11985;BME280;6052;53.246;10.368;2024-01-11T02:57:12;102824.91;;;-2.53;100.00
11985;BME280;6052;53.246;10.368;2024-01-11T02:59:43;102815.16;;;-2.51;100.00
11985;BME280;6052;53.246;10.368;2024-01-11T03:02:12;102815.06;;;-2.37;100.00
11985;BME280;6052;53.246;10.368;2024-01-11T03:04:42;102815.91;;;-2.75;100.00
11985;BME280;6052;53.246;10.368;2024-01-11T03:07:12;102834.25;;;-3.02;100.00
11985;BME280;6052;53.246;10.368;2024-01-11T03:09:44;102824.94;;;-2.93;100.00
11985;BME280;6052;53.246;10.368;2024-01-11T03:12:13;102822.63;;;-2.98;100.00
11985;BME280;6052;53.246;10.368;2024-01-11T03:14:43;102814.44;;;-2.67;100.00
11985;BME280;6052;53.246;10.368;2024-01-11T03:17:12;102813.06;;;-2.46;100.00
11985;BME280;6052;53.246;10.368;2024-01-11T03:19:42;102806.09;;;-2.47;100.00
11985;BME280;6052;53.246;10.368;2024-01-11T03:22:12;102804.53;;;-2.37;100.00
11985;BME280;6052;53.246;10.368;2024-01-11T03:24:44;102817.59;;;-2.35;100.00
11985;BME280;6052;53.246;10.368;2024-01-11T03:27:13;102817.22;;;-2.29;100.00
11985;BME280;6052;53.246;10.368;2024-01-11T03:29:43;102807.44;;;-2.15;100.00
11985;BME280;6052;53.246;10.368;2024-01-11T03:32:13;102805.31;;;-2.35;100.00
11985;BME280;6052;53.246;10.368;2024-01-11T03:34:43;102807.75;;;-2.19;100.00
11985;BME280;6052;53.246;10.368;2024-01-11T03:37:12;102797.88;;;-2.16;100.00
11985;BME280;6052;53.246;10.368;2024-01-11T03:39:45;102803.22;;;-2.05;100.00
11985;BME280;6052;53.246;10.368;2024-01-11T03:42:15;102808.59;;;-2.06;100.00
11985;BME280;6052;53.246;10.368;2024-01-11T03:44:45;102813.22;;;-2.10;100.00
11985;BME280;6052;53.246;10.368;2024-01-11T03:47:14;102822.47;;;-2.17;100.00
11985;BME280;6052;53.246;10.368;2024-01-11T03:49:45;102810.13;;;-2.29;100.00
11985;BME280;6052;53.246;10.368;2024-01-11T03:52:14;102809.25;;;-2.42;100.00
11985;BME280;6052;53.246;10.368;2024-01-11T03:54:47;102810.56;;;-2.22;100.00
11985;BME280;6052;53.246;10.368;2024-01-11T03:57:16;102821.94;;;-2.22;100.00
11985;BME280;6052;53.246;10.368;2024-01-11T03:59:46;102811.06;;;-2.42;100.00
11985;BME280;6052;53.246;10.368;2024-01-11T04:02:15;102800.38;;;-2.27;100.00
11985;BME280;6052;53.246;10.368;2024-01-11T04:04:45;102804.97;;;-2.30;100.00
11985;BME280;6052;53.246;10.368;2024-01-11T04:07:14;102799.72;;;-2.30;100.00
11985;BME280;6052;53.246;10.368;2024-01-11T04:09:46;102814.06;;;-2.22;100.00
11985;BME280;6052;53.246;10.368;2024-01-11T04:12:16;102814.94;;;-2.48;100.00
11985;BME280;6052;53.246;10.368;2024-01-11T04:14:46;102816.34;;;-2.30;100.00
11985;BME280;6052;53.246;10.368;2024-01-11T04:17:15;102812.88;;;-2.30;100.00
11985;BME280;6052;53.246;10.368;2024-01-11T04:19:45;102811.84;;;-2.15;100.00
11985;BME280;6052;53.246;10.368;2024-01-11T04:22:14;102805.75;;;-2.03;100.00
11985;BME280;6052;53.246;10.368;2024-01-11T04:24:47;102793.22;;;-2.25;100.00
11985;BME280;6052;53.246;10.368;2024-01-11T04:27:16;102767.53;;;-2.34;100.00
11985;BME280;6052;53.246;10.368;2024-01-11T04:29:46;102758.50;;;-2.42;100.00
11985;BME280;6052;53.246;10.368;2024-01-11T04:32:15;102744.31;;;-2.40;100.00
11985;BME280;6052;53.246;10.368;2024-01-11T04:34:45;102743.78;;;-2.45;100.00
11985;BME280;6052;53.246;10.368;2024-01-11T04:37:15;102733.78;;;-2.27;100.00
11985;BME280;6052;53.246;10.368;2024-01-11T04:39:47;102742.00;;;-2.32;100.00
11985;BME280;6052;53.246;10.368;2024-01-11T04:42:16;102729.78;;;-2.20;100.00
11985;BME280;6052;53.246;10.368;2024-01-11T04:44:46;102724.31;;;-2.42;100.00
11985;BME280;6052;53.246;10.368;2024-01-11T04:47:15;102723.47;;;-2.43;100.00
11985;BME280;6052;53.246;10.368;2024-01-11T04:49:45;102709.38;;;-2.42;100.00
11985;BME280;6052;53.246;10.368;2024-01-11T04:52:15;102729.91;;;-2.34;100.00
11985;BME280;6052;53.246;10.368;2024-01-11T04:54:47;102727.38;;;-2.48;100.00
11985;BME280;6052;53.246;10.368;2024-01-11T04:57:16;102710.34;;;-2.43;100.00
11985;BME280;6052;53.246;10.368;2024-01-11T04:59:46;102715.59;;;-2.43;100.00
11985;BME280;6052;53.246;10.368;2024-01-11T05:02:16;102714.00;;;-2.20;100.00
11985;BME280;6052;53.246;10.368;2024-01-11T05:04:45;102717.59;;;-2.46;100.00
11985;BME280;6052;53.246;10.368;2024-01-11T05:07:15;102712.25;;;-2.32;100.00
11985;BME280;6052;53.246;10.368;2024-01-11T05:09:47;102715.72;;;-2.32;100.00
11985;BME280;6052;53.246;10.368;2024-01-11T05:12:16;102704.25;;;-2.18;100.00
11985;BME280;6052;53.246;10.368;2024-01-11T05:14:46;102701.19;;;-2.37;100.00
11985;BME280;6052;53.246;10.368;2024-01-11T05:17:15;102701.72;;;-2.20;100.00
11985;BME280;6052;53.246;10.368;2024-01-11T05:19:45;102711.09;;;-2.16;100.00
11985;BME280;6052;53.246;10.368;2024-01-11T05:22:15;102709.28;;;-2.15;100.00
11985;BME280;6052;53.246;10.368;2024-01-11T05:24:47;102730.22;;;-2.26;100.00
11985;BME280;6052;53.246;10.368;2024-01-11T05:27:16;102730.75;;;-2.21;100.00
11985;BME280;6052;53.246;10.368;2024-01-11T05:29:46;102728.44;;;-2.01;100.00
11985;BME280;6052;53.246;10.368;2024-01-11T05:32:15;102740.63;;;-2.12;100.00
11985;BME280;6052;53.246;10.368;2024-01-11T05:34:45;102732.75;;;-2.12;100.00
11985;BME280;6052;53.246;10.368;2024-01-11T05:37:15;102727.91;;;-2.18;100.00
11985;BME280;6052;53.246;10.368;2024-01-11T05:39:47;102721.19;;;-2.10;100.00
11985;BME280;6052;53.246;10.368;2024-01-11T05:42:16;102731.38;;;-2.05;100.00
11985;BME280;6052;53.246;10.368;2024-01-11T05:44:46;102726.44;;;-2.22;100.00
11985;BME280;6052;53.246;10.368;2024-01-11T05:47:15;102732.66;;;-2.11;100.00
11985;BME280;6052;53.246;10.368;2024-01-11T05:49:45;102735.47;;;-2.01;100.00
11985;BME280;6052;53.246;10.368;2024-01-11T05:52:15;102749.56;;;-2.27;100.00
11985;BME280;6052;53.246;10.368;2024-01-11T05:54:47;102754.31;;;-2.07;100.00
11985;BME280;6052;53.246;10.368;2024-01-11T05:57:16;102756.75;;;-2.17;100.00
11985;BME280;6052;53.246;10.368;2024-01-11T05:59:46;102756.31;;;-2.11;100.00
11985;BME280;6052;53.246;10.368;2024-01-11T06:02:16;102749.78;;;-2.05;100.00
11985;BME280;6052;53.246;10.368;2024-01-11T06:04:47;102747.16;;;-2.05;100.00
11985;BME280;6052;53.246;10.368;2024-01-11T06:07:16;102732.84;;;-1.89;100.00
11985;BME280;6052;53.246;10.368;2024-01-11T06:09:48;102729.78;;;-1.83;100.00
11985;BME280;6052;53.246;10.368;2024-01-11T06:12:18;102725.69;;;-1.87;100.00
11985;BME280;6052;53.246;10.368;2024-01-11T06:14:48;102727.06;;;-1.94;100.00
11985;BME280;6052;53.246;10.368;2024-01-11T06:17:17;102723.13;;;-1.76;100.00
11985;BME280;6052;53.246;10.368;2024-01-11T06:19:47;102713.06;;;-1.94;100.00
11985;BME280;6052;53.246;10.368;2024-01-11T06:22:16;102711.13;;;-1.80;100.00
11985;BME280;6052;53.246;10.368;2024-01-11T06:24:49;102712.81;;;-1.79;100.00
11985;BME280;6052;53.246;10.368;2024-01-11T06:27:18;102698.84;;;-1.79;100.00
11985;BME280;6052;53.246;10.368;2024-01-11T06:29:48;102703.22;;;-1.67;100.00
11985;BME280;6052;53.246;10.368;2024-01-11T06:32:15;102698.63;;;-1.89;100.00
11985;BME280;6052;53.246;10.368;2024-01-11T06:34:45;102703.38;;;-1.94;100.00
11985;BME280;6052;53.246;10.368;2024-01-11T06:37:15;102711.47;;;-1.72;100.00
11985;BME280;6052;53.246;10.368;2024-01-11T06:39:44;102706.19;;;-1.72;100.00
11985;BME280;6052;53.246;10.368;2024-01-11T06:42:16;102714.84;;;-1.82;100.00
11985;BME280;6052;53.246;10.368;2024-01-11T06:44:46;102723.25;;;-1.90;100.00
11985;BME280;6052;53.246;10.368;2024-01-11T06:47:16;102721.97;;;-1.72;100.00
11985;BME280;6052;53.246;10.368;2024-01-11T06:49:45;102709.63;;;-1.59;100.00
11985;BME280;6052;53.246;10.368;2024-01-11T06:52:12;102690.72;;;-1.76;100.00
11985;BME280;6052;53.246;10.368;2024-01-11T06:54:42;102692.41;;;-1.75;100.00
11985;BME280;6052;53.246;10.368;2024-01-11T06:57:11;102697.50;;;-1.61;100.00
11985;BME280;6052;53.246;10.368;2024-01-11T06:59:43;102711.91;;;-1.78;100.00
11985;BME280;6052;53.246;10.368;2024-01-11T07:02:13;102710.50;;;-1.71;100.00
11985;BME280;6052;53.246;10.368;2024-01-11T07:04:43;102711.47;;;-1.72;100.00
11985;BME280;6052;53.246;10.368;2024-01-11T07:07:13;102731.50;;;-2.07;100.00
11985;BME280;6052;53.246;10.368;2024-01-11T07:09:42;102732.72;;;-1.75;100.00
11985;BME280;6052;53.246;10.368;2024-01-11T07:12:12;102714.28;;;-1.75;100.00
11985;BME280;6052;53.246;10.368;2024-01-11T07:14:44;102715.31;;;-1.65;100.00
11985;BME280;6052;53.246;10.368;2024-01-11T07:17:14;102721.09;;;-1.60;100.00
11985;BME280;6052;53.246;10.368;2024-01-11T07:19:44;102716.16;;;-1.64;100.00
11985;BME280;6052;53.246;10.368;2024-01-11T07:22:14;102717.84;;;-1.63;100.00
11985;BME280;6052;53.246;10.368;2024-01-11T07:24:43;102719.84;;;-1.54;100.00
11985;BME280;6052;53.246;10.368;2024-01-11T07:27:13;102711.88;;;-1.65;100.00
11985;BME280;6052;53.246;10.368;2024-01-11T07:29:45;102712.53;;;-1.51;100.00
11985;BME280;6052;53.246;10.368;2024-01-11T07:32:15;102708.25;;;-1.52;100.00
11985;BME280;6052;53.246;10.368;2024-01-11T07:34:44;102696.03;;;-1.53;100.00
11985;BME280;6052;53.246;10.368;2024-01-11T07:37:14;102711.84;;;-1.53;100.00
11985;BME280;6052;53.246;10.368;2024-01-11T07:39:43;102731.94;;;-1.52;100.00
11985;BME280;6052;53.246;10.368;2024-01-11T07:42:14;102745.16;;;-1.77;100.00
11985;BME280;6052;53.246;10.368;2024-01-11T07:44:46;102741.53;;;-1.63;100.00
11985;BME280;6052;53.246;10.368;2024-01-11T07:47:16;102748.91;;;-1.68;100.00
11985;BME280;6052;53.246;10.368;2024-01-11T07:49:45;102745.56;;;-1.70;100.00
11985;BME280;6052;53.246;10.368;2024-01-11T07:52:15;102748.59;;;-1.76;100.00
11985;BME280;6052;53.246;10.368;2024-01-11T07:54:46;102749.13;;;-1.71;100.00
11985;BME280;6052;53.246;10.368;2024-01-11T07:57:16;102752.81;;;-1.74;100.00
11985;BME280;6052;53.246;10.368;2024-01-11T07:59:46;102748.28;;;-1.59;100.00
11985;BME280;6052;53.246;10.368;2024-01-11T08:02:15;102760.84;;;-1.75;100.00
11985;BME280;6052;53.246;10.368;2024-01-11T08:04:45;102775.44;;;-1.71;100.00
11985;BME280;6052;53.246;10.368;2024-01-11T08:07:15;102779.34;;;-1.64;100.00
11985;BME280;6052;53.246;10.368;2024-01-11T08:09:45;102776.50;;;-1.74;100.00
11985;BME280;6052;53.246;10.368;2024-01-11T08:12:14;102778.59;;;-1.54;100.00
11985;BME280;6052;53.246;10.368;2024-01-11T08:14:46;102767.22;;;-1.54;100.00
11985;BME280;6052;53.246;10.368;2024-01-11T08:17:16;102765.28;;;-1.40;100.00
11985;BME280;6052;53.246;10.368;2024-01-11T08:19:46;102753.47;;;-1.34;100.00
11985;BME280;6052;53.246;10.368;2024-01-11T08:22:15;102751.34;;;-1.29;100.00
11985;BME280;6052;53.246;10.368;2024-01-11T08:24:52;102752.03;;;-1.51;100.00
11985;BME280;6052;53.246;10.368;2024-01-11T08:27:22;102747.34;;;-1.35;100.00
11985;BME280;6052;53.246;10.368;2024-01-11T08:29:54;102745.28;;;-1.42;100.00
11985;BME280;6052;53.246;10.368;2024-01-11T08:32:24;102733.66;;;-1.40;100.00
11985;BME280;6052;53.246;10.368;2024-01-11T08:34:58;102735.34;;;-1.26;100.00
11985;BME280;6052;53.246;10.368;2024-01-11T08:37:27;102739.97;;;-1.30;100.00
11985;BME280;6052;53.246;10.368;2024-01-11T08:39:57;102730.44;;;-1.20;100.00
11985;BME280;6052;53.246;10.368;2024-01-11T08:42:27;102732.66;;;-1.14;100.00
11985;BME280;6052;53.246;10.368;2024-01-11T08:44:59;102737.63;;;-1.22;100.00
11985;BME280;6052;53.246;10.368;2024-01-11T08:47:33;102720.94;;;-1.10;100.00
11985;BME280;6052;53.246;10.368;2024-01-11T08:50:06;102728.50;;;-1.05;100.00
11985;BME280;6052;53.246;10.368;2024-01-11T08:52:37;102724.50;;;-1.11;100.00
11985;BME280;6052;53.246;10.368;2024-01-11T08:55:08;102735.19;;;-1.25;100.00
11985;BME280;6052;53.246;10.368;2024-01-11T08:57:39;102725.81;;;-1.16;100.00
11985;BME280;6052;53.246;10.368;2024-01-11T09:00:14;102728.03;;;-0.99;100.00
11985;BME280;6052;53.246;10.368;2024-01-11T09:02:45;102718.41;;;-0.88;100.00
11985;BME280;6052;53.246;10.368;2024-01-11T09:05:15;102732.03;;;-0.94;100.00
11985;BME280;6052;53.246;10.368;2024-01-11T09:07:45;102727.97;;;-0.87;100.00
11985;BME280;6052;53.246;10.368;2024-01-11T09:10:17;102716.84;;;-0.90;100.00
11985;BME280;6052;53.246;10.368;2024-01-11T09:12:46;102715.75;;;-0.88;100.00
11985;BME280;6052;53.246;10.368;2024-01-11T09:15:18;102722.31;;;-0.93;100.00
11985;BME280;6052;53.246;10.368;2024-01-11T09:17:48;102726.09;;;-0.85;100.00
11985;BME280;6052;53.246;10.368;2024-01-11T09:20:18;102717.13;;;-0.82;100.00
11985;BME280;6052;53.246;10.368;2024-01-11T09:22:48;102716.75;;;-0.78;100.00
11985;BME280;6052;53.246;10.368;2024-01-11T09:25:18;102730.16;;;-0.81;100.00
11985;BME280;6052;53.246;10.368;2024-01-11T09:27:48;102711.38;;;-0.76;100.00
11985;BME280;6052;53.246;10.368;2024-01-11T09:30:20;102693.03;;;-0.78;100.00
11985;BME280;6052;53.246;10.368;2024-01-11T09:32:50;102692.72;;;-0.73;100.00
11985;BME280;6052;53.246;10.368;2024-01-11T09:35:19;102713.09;;;-0.64;100.00
11985;BME280;6052;53.246;10.368;2024-01-11T09:37:50;102715.63;;;-0.63;100.00
11985;BME280;6052;53.246;10.368;2024-01-11T09:40:19;102731.03;;;-0.69;100.00
11985;BME280;6052;53.246;10.368;2024-01-11T09:42:49;102721.88;;;-0.53;100.00
11985;BME280;6052;53.246;10.368;2024-01-11T09:45:21;102723.78;;;-0.55;100.00
11985;BME280;6052;53.246;10.368;2024-01-11T09:47:52;102715.78;;;-0.42;100.00
11985;BME280;6052;53.246;10.368;2024-01-11T09:50:22;102718.41;;;-0.53;100.00
11985;BME280;6052;53.246;10.368;2024-01-11T09:52:53;102716.59;;;-0.53;100.00
11985;BME280;6052;53.246;10.368;2024-01-11T09:55:22;102718.53;;;-0.55;100.00
11985;BME280;6052;53.246;10.368;2024-01-11T09:57:53;102718.66;;;-0.45;100.00
11985;BME280;6052;53.246;10.368;2024-01-11T10:00:29;102712.56;;;-0.46;100.00
11985;BME280;6052;53.246;10.368;2024-01-11T10:02:59;102711.00;;;-0.48;100.00
11985;BME280;6052;53.246;10.368;2024-01-11T10:05:29;102715.69;;;-0.41;100.00
11985;BME280;6052;53.246;10.368;2024-01-11T10:07:59;102711.00;;;-0.48;100.00
11985;BME280;6052;53.246;10.368;2024-01-11T10:10:29;102709.44;;;-0.40;100.00
11985;BME280;6052;53.246;10.368;2024-01-11T10:12:59;102705.16;;;-0.30;100.00
11985;BME280;6052;53.246;10.368;2024-01-11T10:15:32;102702.63;;;-0.31;100.00
11985;BME280;6052;53.246;10.368;2024-01-11T10:18:01;102694.97;;;-0.23;100.00
11985;BME280;6052;53.246;10.368;2024-01-11T10:20:32;102694.22;;;-0.25;100.00
11985;BME280;6052;53.246;10.368;2024-01-11T10:23:02;102700.56;;;-0.28;100.00
11985;BME280;6052;53.246;10.368;2024-01-11T10:25:32;102692.66;;;-0.28;100.00
11985;BME280;6052;53.246;10.368;2024-01-11T10:28:03;102692.81;;;-0.29;100.00
11985;BME280;6052;53.246;10.368;2024-01-11T10:30:32;102693.41;;;-0.15;100.00
11985;BME280;6052;53.246;10.368;2024-01-11T10:33:03;102688.47;;;-0.30;100.00
11985;BME280;6052;53.246;10.368;2024-01-11T10:35:34;102687.28;;;-0.26;100.00
11985;BME280;6052;53.246;10.368;2024-01-11T10:38:09;102686.09;;;-0.22;100.00
11985;BME280;6052;53.246;10.368;2024-01-11T10:40:39;102679.97;;;-0.23;100.00
11985;BME280;6052;53.246;10.368;2024-01-11T10:43:10;102675.31;;;-0.08;100.00
11985;BME280;6052;53.246;10.368;2024-01-11T10:45:47;102675.53;;;-0.11;100.00
11985;BME280;6052;53.246;10.368;2024-01-11T10:48:21;102671.47;;;-0.04;100.00
11985;BME280;6052;53.246;10.368;2024-01-11T10:50:55;102684.53;;;-0.03;100.00
11985;BME280;6052;53.246;10.368;2024-01-11T10:53:32;102682.03;;;-0.04;100.00
11985;BME280;6052;53.246;10.368;2024-01-11T10:56:06;102678.31;;;-0.02;100.00
11985;BME280;6052;53.246;10.368;2024-01-11T10:58:36;102691.41;;;0.00;100.00
11985;BME280;6052;53.246;10.368;2024-01-11T11:01:10;102692.69;;;0.05;100.00
11985;BME280;6052;53.246;10.368;2024-01-11T11:03:41;102694.16;;;-0.02;100.00
11985;BME280;6052;53.246;10.368;2024-01-11T11:06:13;102704.22;;;-0.07;100.00
11985;BME280;6052;53.246;10.368;2024-01-11T11:08:44;102706.38;;;0.10;100.00
11985;BME280;6052;53.246;10.368;2024-01-11T11:11:14;102707.81;;;0.14;100.00
11985;BME280;6052;53.246;10.368;2024-01-11T11:13:47;102707.81;;;0.03;100.00
11985;BME280;6052;53.246;10.368;2024-01-11T11:16:19;102708.31;;;0.08;100.00
11985;BME280;6052;53.246;10.368;2024-01-11T11:18:51;102697.16;;;0.05;100.00
11985;BME280;6052;53.246;10.368;2024-01-11T11:21:21;102697.75;;;0.08;100.00
11985;BME280;6052;53.246;10.368;2024-01-11T11:23:51;102697.50;;;0.11;100.00
11985;BME280;6052;53.246;10.368;2024-01-11T11:26:21;102689.56;;;0.11;100.00
11985;BME280;6052;53.246;10.368;2024-01-11T11:28:50;102694.25;;;0.19;100.00
11985;BME280;6052;53.246;10.368;2024-01-11T11:31:42;102682.75;;;0.20;100.00
11985;BME280;6052;53.246;10.368;2024-01-11T11:34:12;102682.88;;;0.18;100.00
11985;BME280;6052;53.246;10.368;2024-01-11T11:36:46;102681.66;;;0.22;100.00
11985;BME280;6052;53.246;10.368;2024-01-11T11:39:16;102682.72;;;0.31;100.00
11985;BME280;6052;53.246;10.368;2024-01-11T11:41:47;102673.38;;;0.27;100.00
11985;BME280;6052;53.246;10.368;2024-01-11T11:44:16;102664.00;;;0.23;100.00
11985;BME280;6052;53.246;10.368;2024-01-11T11:46:51;102661.25;;;0.24;100.00
11985;BME280;6052;53.246;10.368;2024-01-11T11:49:21;102651.28;;;0.28;100.00
11985;BME280;6052;53.246;10.368;2024-01-11T11:52:17;102659.19;;;0.28;100.00
11985;BME280;6052;53.246;10.368;2024-01-11T11:54:46;102655.13;;;0.35;100.00
11985;BME280;6052;53.246;10.368;2024-01-11T11:57:17;102652.59;;;0.33;100.00
11985;BME280;6052;53.246;10.368;2024-01-11T11:59:48;102643.94;;;0.43;100.00
11985;BME280;6052;53.246;10.368;2024-01-11T12:02:19;102652.28;;;0.58;100.00
11985;BME280;6052;53.246;10.368;2024-01-11T12:04:50;102647.06;;;0.47;100.00
11985;BME280;6052;53.246;10.368;2024-01-11T12:07:23;102635.13;;;0.53;100.00
11985;BME280;6052;53.246;10.368;2024-01-11T12:09:52;102637.06;;;0.51;100.00
11985;BME280;6052;53.246;10.368;2024-01-11T12:12:23;102628.53;;;0.58;100.00
11985;BME280;6052;53.246;10.368;2024-01-11T12:14:53;102612.66;;;0.58;100.00
11985;BME280;6052;53.246;10.368;2024-01-11T12:17:23;102617.25;;;0.57;100.00
11985;BME280;6052;53.246;10.368;2024-01-11T12:19:53;102617.09;;;0.69;100.00
11985;BME280;6052;53.246;10.368;2024-01-11T12:22:26;102604.97;;;0.67;100.00
11985;BME280;6052;53.246;10.368;2024-01-11T12:24:55;102599.22;;;0.62;100.00
11985;BME280;6052;53.246;10.368;2024-01-11T12:27:25;102600.59;;;0.77;100.00
11985;BME280;6052;53.246;10.368;2024-01-11T12:29:55;102604.41;;;0.83;100.00
11985;BME280;6052;53.246;10.368;2024-01-11T12:32:26;102590.97;;;0.75;100.00
11985;BME280;6052;53.246;10.368;2024-01-11T12:34:57;102597.31;;;0.84;100.00
11985;BME280;6052;53.246;10.368;2024-01-11T12:37:30;102595.78;;;0.82;100.00
11985;BME280;6052;53.246;10.368;2024-01-11T12:40:00;102590.16;;;0.75;100.00
11985;BME280;6052;53.246;10.368;2024-01-11T12:42:30;102597.00;;;0.77;100.00
11985;BME280;6052;53.246;10.368;2024-01-11T12:44:59;102601.75;;;0.83;100.00
11985;BME280;6052;53.246;10.368;2024-01-11T12:47:29;102600.09;;;0.82;100.00
11985;BME280;6052;53.246;10.368;2024-01-11T12:49:59;102608.47;;;0.88;100.00
11985;BME280;6052;53.246;10.368;2024-01-11T12:52:31;102614.44;;;0.89;100.00
11985;BME280;6052;53.246;10.368;2024-01-11T12:55:01;102608.59;;;0.86;100.00
11985;BME280;6052;53.246;10.368;2024-01-11T12:57:31;102612.59;;;0.81;100.00